sensor_id;sensor_type;location;lat;lon;timestamp;pressure;altitude;pressure_sealevel;temperature;humidity
72636;BME280;60679;48.888;15.544;2023-06-26T00:01:50;96279.09;;;14.40;56.82
72636;BME280;60679;48.888;15.544;2023-06-26T00:04:16;96272.09;;;14.27;56.70
72636;BME280;60679;48.888;15.544;2023-06-26T00:06:41;96278.72;;;14.20;56.76
72636;BME280;60679;48.888;15.544;2023-06-26T00:09:07;96270.75;;;14.13;56.90
72636;BME280;60679;48.888;15.544;2023-06-26T00:11:33;96271.81;;;14.12;56.89
72636;BME280;60679;48.888;15.544;2023-06-26T00:14:01;96277.00;;;14.14;57.12
72636;BME280;60679;48.888;15.544;2023-06-26T00:16:27;96273.69;;;14.12;57.18
72636;BME280;60679;48.888;15.544;2023-06-26T00:18:53;96269.59;;;14.09;57.20
72636;BME280;60679;48.888;15.544;2023-06-26T00:21:21;96275.03;;;14.09;57.31
72636;BME280;60679;48.888;15.544;2023-06-26T00:23:47;96283.44;;;14.08;57.28
72636;BME280;60679;48.888;15.544;2023-06-26T00:26:12;96279.19;;;14.00;57.50
72636;BME280;60679;48.888;15.544;2023-06-26T00:28:37;96275.34;;;13.96;57.54
72636;BME280;60679;48.888;15.544;2023-06-26T00:31:03;96276.88;;;13.92;57.80
72636;BME280;60679;48.888;15.544;2023-06-26T00:33:29;96283.72;;;13.95;57.80
72636;BME280;60679;48.888;15.544;2023-06-26T00:35:54;96277.78;;;13.98;57.79
72636;BME280;60679;48.888;15.544;2023-06-26T00:38:21;96280.78;;;13.96;57.81
72636;BME280;60679;48.888;15.544;2023-06-26T00:40:47;96282.91;;;13.94;57.88
72636;BME280;60679;48.888;15.544;2023-06-26T00:43:12;96275.81;;;13.93;57.90
72636;BME280;60679;48.888;15.544;2023-06-26T00:45:38;96275.81;;;13.93;58.15
72636;BME280;60679;48.888;15.544;2023-06-26T00:48:03;96272.84;;;13.95;58.09
72636;BME280;60679;48.888;15.544;2023-06-26T00:50:29;96280.19;;;13.94;58.18
72636;BME280;60679;48.888;15.544;2023-06-26T00:52:55;96270.06;;;13.89;58.22
72636;BME280;60679;48.888;15.544;2023-06-26T00:55:25;96273.03;;;13.88;58.47
72636;BME280;60679;48.888;15.544;2023-06-26T00:57:51;96266.78;;;13.87;58.65
72636;BME280;60679;48.888;15.544;2023-06-26T01:00:17;96272.78;;;13.89;58.38
72636;BME280;60679;48.888;15.544;2023-06-26T01:02:43;96264.06;;;13.87;58.47
72636;BME280;60679;48.888;15.544;2023-06-26T01:05:08;96263.72;;;13.84;58.59
72636;BME280;60679;48.888;15.544;2023-06-26T01:07:38;96267.41;;;13.78;58.67
72636;BME280;60679;48.888;15.544;2023-06-26T01:10:09;96267.88;;;13.75;58.88
72636;BME280;60679;48.888;15.544;2023-06-26T01:12:36;96261.88;;;13.73;58.98
72636;BME280;60679;48.888;15.544;2023-06-26T01:15:01;96259.66;;;13.70;59.06
72636;BME280;60679;48.888;15.544;2023-06-26T01:17:27;96260.13;;;13.67;58.97
72636;BME280;60679;48.888;15.544;2023-06-26T01:20:02;96259.78;;;13.63;59.00
72636;BME280;60679;48.888;15.544;2023-06-26T01:22:38;96259.22;;;13.61;59.19
72636;BME280;60679;48.888;15.544;2023-06-26T01:27:58;96253.41;;;13.41;59.41
72636;BME280;60679;48.888;15.544;2023-06-26T01:30:25;96251.03;;;13.45;59.47
72636;BME280;60679;48.888;15.544;2023-06-26T01:32:50;96253.53;;;13.46;59.53
72636;BME280;60679;48.888;15.544;2023-06-26T01:35:17;96250.81;;;13.46;59.61
72636;BME280;60679;48.888;15.544;2023-06-26T01:37:42;96251.50;;;13.42;59.40
72636;BME280;60679;48.888;15.544;2023-06-26T01:40:08;96254.34;;;13.35;59.67
72636;BME280;60679;48.888;15.544;2023-06-26T01:42:35;96251.19;;;13.26;59.84
72636;BME280;60679;48.888;15.544;2023-06-26T01:45:07;96242.84;;;13.28;59.84
72636;BME280;60679;48.888;15.544;2023-06-26T01:47:36;96244.59;;;13.34;59.86
72636;BME280;60679;48.888;15.544;2023-06-26T01:50:12;96236.47;;;13.34;60.19
72636;BME280;60679;48.888;15.544;2023-06-26T01:52:47;96241.63;;;13.36;60.01
72636;BME280;60679;48.888;15.544;2023-06-26T01:55:32;96235.38;;;13.35;60.04
72636;BME280;60679;48.888;15.544;2023-06-26T01:58:01;96235.63;;;13.34;60.29
72636;BME280;60679;48.888;15.544;2023-06-26T02:00:27;96239.88;;;13.29;60.36
72636;BME280;60679;48.888;15.544;2023-06-26T02:02:53;96232.47;;;13.25;60.21
72636;BME280;60679;48.888;15.544;2023-06-26T02:05:19;96239.22;;;13.22;60.35
72636;BME280;60679;48.888;15.544;2023-06-26T02:07:44;96239.13;;;13.17;60.50
72636;BME280;60679;48.888;15.544;2023-06-26T02:10:09;96236.28;;;13.12;60.52
72636;BME280;60679;48.888;15.544;2023-06-26T02:12:36;96240.63;;;13.02;60.43
72636;BME280;60679;48.888;15.544;2023-06-26T02:15:03;96241.28;;;12.92;60.93
72636;BME280;60679;48.888;15.544;2023-06-26T02:17:31;96244.94;;;12.86;60.80
72636;BME280;60679;48.888;15.544;2023-06-26T02:20:00;96248.47;;;12.87;60.83
72636;BME280;60679;48.888;15.544;2023-06-26T02:22:25;96245.97;;;12.85;60.67
72636;BME280;60679;48.888;15.544;2023-06-26T02:24:51;96248.81;;;12.79;60.97
72636;BME280;60679;48.888;15.544;2023-06-26T02:27:16;96240.09;;;12.77;60.79
72636;BME280;60679;48.888;15.544;2023-06-26T02:29:41;96239.53;;;12.74;61.07
72636;BME280;60679;48.888;15.544;2023-06-26T02:32:07;96248.94;;;12.72;60.82
72636;BME280;60679;48.888;15.544;2023-06-26T02:34:34;96246.63;;;12.64;60.92
72636;BME280;60679;48.888;15.544;2023-06-26T02:36:59;96250.25;;;12.58;61.01
72636;BME280;60679;48.888;15.544;2023-06-26T02:39:26;96250.84;;;12.60;61.10
72636;BME280;60679;48.888;15.544;2023-06-26T02:41:51;96260.63;;;12.61;61.29
72636;BME280;60679;48.888;15.544;2023-06-26T02:44:17;96249.31;;;12.64;61.42
72636;BME280;60679;48.888;15.544;2023-06-26T02:46:42;96255.06;;;12.67;61.43
72636;BME280;60679;48.888;15.544;2023-06-26T02:49:11;96254.84;;;12.69;61.30
72636;BME280;60679;48.888;15.544;2023-06-26T02:51:37;96257.09;;;12.72;61.33
72636;BME280;60679;48.888;15.544;2023-06-26T02:54:03;96252.13;;;12.69;61.37
72636;BME280;60679;48.888;15.544;2023-06-26T02:56:28;96265.56;;;12.64;61.45
72636;BME280;60679;48.888;15.544;2023-06-26T02:58:54;96253.56;;;12.60;61.25
72636;BME280;60679;48.888;15.544;2023-06-26T03:01:20;96255.09;;;12.56;61.44
72636;BME280;60679;48.888;15.544;2023-06-26T03:03:46;96260.84;;;12.48;61.58
72636;BME280;60679;48.888;15.544;2023-06-26T03:06:12;96260.25;;;12.46;61.59
72636;BME280;60679;48.888;15.544;2023-06-26T03:08:38;96258.38;;;12.46;61.59
72636;BME280;60679;48.888;15.544;2023-06-26T03:11:05;96257.34;;;12.47;61.55
72636;BME280;60679;48.888;15.544;2023-06-26T03:13:34;96262.75;;;12.47;61.49
72636;BME280;60679;48.888;15.544;2023-06-26T03:16:03;96259.69;;;12.55;61.69
72636;BME280;60679;48.888;15.544;2023-06-26T03:18:29;96259.78;;;12.60;61.80
72636;BME280;60679;48.888;15.544;2023-06-26T03:20:57;96256.97;;;12.67;61.78
72636;BME280;60679;48.888;15.544;2023-06-26T03:23:23;96250.94;;;12.77;61.64
72636;BME280;60679;48.888;15.544;2023-06-26T03:25:49;96250.56;;;12.85;61.77
72636;BME280;60679;48.888;15.544;2023-06-26T03:28:15;96249.63;;;12.91;61.60
72636;BME280;60679;48.888;15.544;2023-06-26T03:30:40;96253.50;;;12.95;61.65
72636;BME280;60679;48.888;15.544;2023-06-26T03:33:06;96257.38;;;12.99;61.69
72636;BME280;60679;48.888;15.544;2023-06-26T03:35:31;96249.84;;;13.01;61.81
72636;BME280;60679;48.888;15.544;2023-06-26T03:37:57;96253.84;;;13.10;61.55
72636;BME280;60679;48.888;15.544;2023-06-26T03:40:23;96255.38;;;13.17;61.57
72636;BME280;60679;48.888;15.544;2023-06-26T03:42:48;96252.50;;;13.24;61.58
72636;BME280;60679;48.888;15.544;2023-06-26T03:45:13;96255.56;;;13.27;61.50
72636;BME280;60679;48.888;15.544;2023-06-26T03:47:39;96252.72;;;13.34;61.53
72636;BME280;60679;48.888;15.544;2023-06-26T03:50:05;96250.94;;;13.40;61.57
72636;BME280;60679;48.888;15.544;2023-06-26T03:52:30;96256.94;;;13.42;61.33
72636;BME280;60679;48.888;15.544;2023-06-26T03:54:57;96253.41;;;13.41;61.64
72636;BME280;60679;48.888;15.544;2023-06-26T03:57:23;96257.03;;;13.47;61.38
72636;BME280;60679;48.888;15.544;2023-06-26T03:59:49;96255.72;;;13.49;61.36
72636;BME280;60679;48.888;15.544;2023-06-26T04:02:14;96262.31;;;13.53;61.51
72636;BME280;60679;48.888;15.544;2023-06-26T04:04:39;96271.16;;;13.60;61.48
72636;BME280;60679;48.888;15.544;2023-06-26T04:07:05;96262.38;;;13.70;61.48
72636;BME280;60679;48.888;15.544;2023-06-26T04:09:30;96264.19;;;13.81;61.26
72636;BME280;60679;48.888;15.544;2023-06-26T04:11:55;96261.00;;;13.84;61.26
72636;BME280;60679;48.888;15.544;2023-06-26T04:14:21;96253.34;;;13.81;61.32
72636;BME280;60679;48.888;15.544;2023-06-26T04:16:47;96267.81;;;13.86;61.48
72636;BME280;60679;48.888;15.544;2023-06-26T04:19:12;96261.19;;;13.94;61.37
72636;BME280;60679;48.888;15.544;2023-06-26T04:21:38;96264.06;;;14.04;61.42
72636;BME280;60679;48.888;15.544;2023-06-26T04:24:04;96266.94;;;14.14;61.37
72636;BME280;60679;48.888;15.544;2023-06-26T04:26:29;96265.13;;;14.20;61.18
72636;BME280;60679;48.888;15.544;2023-06-26T04:28:55;96268.28;;;14.28;61.12
72636;BME280;60679;48.888;15.544;2023-06-26T04:31:20;96261.97;;;14.39;61.26
72636;BME280;60679;48.888;15.544;2023-06-26T04:33:47;96265.91;;;14.49;61.33
72636;BME280;60679;48.888;15.544;2023-06-26T04:36:17;96259.00;;;14.58;61.32
72636;BME280;60679;48.888;15.544;2023-06-26T04:38:42;96262.69;;;14.68;61.29
72636;BME280;60679;48.888;15.544;2023-06-26T04:41:07;96264.47;;;14.79;61.22
72636;BME280;60679;48.888;15.544;2023-06-26T04:43:33;96260.03;;;14.90;61.22
72636;BME280;60679;48.888;15.544;2023-06-26T04:45:58;96260.72;;;15.02;61.08
72636;BME280;60679;48.888;15.544;2023-06-26T04:48:26;96260.59;;;15.14;61.11
72636;BME280;60679;48.888;15.544;2023-06-26T04:50:56;96263.47;;;15.24;61.07
72636;BME280;60679;48.888;15.544;2023-06-26T04:53:22;96269.28;;;15.32;60.87
72636;BME280;60679;48.888;15.544;2023-06-26T04:55:49;96266.88;;;15.36;60.93
72636;BME280;60679;48.888;15.544;2023-06-26T04:58:14;96260.19;;;15.43;61.02
72636;BME280;60679;48.888;15.544;2023-06-26T05:00:39;96264.38;;;15.51;60.87
72636;BME280;60679;48.888;15.544;2023-06-26T05:03:17;96263.69;;;15.61;60.94
72636;BME280;60679;48.888;15.544;2023-06-26T05:05:46;96264.66;;;15.76;60.90
72636;BME280;60679;48.888;15.544;2023-06-26T05:10:43;96265.78;;;16.07;60.75
72636;BME280;60679;48.888;15.544;2023-06-26T05:13:09;96254.72;;;16.18;60.87
72636;BME280;60679;48.888;15.544;2023-06-26T05:15:34;96257.81;;;16.32;60.80
72636;BME280;60679;48.888;15.544;2023-06-26T05:17:59;96257.66;;;16.44;60.72
72636;BME280;60679;48.888;15.544;2023-06-26T05:20:25;96255.59;;;16.56;60.69
72636;BME280;60679;48.888;15.544;2023-06-26T05:22:50;96255.41;;;16.67;60.76
72636;BME280;60679;48.888;15.544;2023-06-26T05:25:18;96255.47;;;16.78;60.57
72636;BME280;60679;48.888;15.544;2023-06-26T05:27:43;96255.28;;;16.89;60.53
72636;BME280;60679;48.888;15.544;2023-06-26T05:30:09;96254.81;;;17.02;60.50
72636;BME280;60679;48.888;15.544;2023-06-26T05:32:35;96256.50;;;17.13;60.62
72636;BME280;60679;48.888;15.544;2023-06-26T05:35:02;96251.94;;;17.29;60.42
72636;BME280;60679;48.888;15.544;2023-06-26T05:37:30;96254.47;;;17.46;60.38
72636;BME280;60679;48.888;15.544;2023-06-26T05:39:56;96249.34;;;17.54;60.23
72636;BME280;60679;48.888;15.544;2023-06-26T05:42:22;96249.13;;;17.66;60.12
72636;BME280;60679;48.888;15.544;2023-06-26T05:44:47;96241.50;;;17.78;60.07
72636;BME280;60679;48.888;15.544;2023-06-26T05:47:13;96245.09;;;17.88;59.89
72636;BME280;60679;48.888;15.544;2023-06-26T05:49:38;96247.28;;;18.02;59.74
72636;BME280;60679;48.888;15.544;2023-06-26T05:52:04;96240.47;;;18.14;59.92
72636;BME280;60679;48.888;15.544;2023-06-26T05:54:29;96244.56;;;18.27;59.61
72636;BME280;60679;48.888;15.544;2023-06-26T05:56:57;96237.75;;;18.39;59.65
72636;BME280;60679;48.888;15.544;2023-06-26T05:59:24;96236.41;;;18.52;59.02
72636;BME280;60679;48.888;15.544;2023-06-26T06:01:51;96241.03;;;18.67;59.15
72636;BME280;60679;48.888;15.544;2023-06-26T06:04:17;96239.91;;;18.83;58.99
72636;BME280;60679;48.888;15.544;2023-06-26T06:06:42;96239.38;;;18.96;59.08
72636;BME280;60679;48.888;15.544;2023-06-26T06:09:08;96244.00;;;19.11;58.97
72636;BME280;60679;48.888;15.544;2023-06-26T06:11:33;96242.56;;;19.23;58.79
72636;BME280;60679;48.888;15.544;2023-06-26T06:13:58;96249.91;;;19.38;58.91
72636;BME280;60679;48.888;15.544;2023-06-26T06:16:25;96245.78;;;19.50;58.34
72636;BME280;60679;48.888;15.544;2023-06-26T06:18:50;96241.88;;;19.62;58.50
72636;BME280;60679;48.888;15.544;2023-06-26T06:21:16;96245.66;;;19.76;58.27
72636;BME280;60679;48.888;15.544;2023-06-26T06:23:41;96239.03;;;19.87;58.18
72636;BME280;60679;48.888;15.544;2023-06-26T06:26:06;96249.06;;;20.01;57.58
72636;BME280;60679;48.888;15.544;2023-06-26T06:28:32;96245.19;;;20.07;57.53
72636;BME280;60679;48.888;15.544;2023-06-26T06:30:57;96245.38;;;20.21;57.50
72636;BME280;60679;48.888;15.544;2023-06-26T06:33:22;96245.88;;;20.33;57.43
72636;BME280;60679;48.888;15.544;2023-06-26T06:35:48;96246.91;;;20.42;57.27
72636;BME280;60679;48.888;15.544;2023-06-26T06:38:13;96242.47;;;20.51;56.88
72636;BME280;60679;48.888;15.544;2023-06-26T06:40:39;96239.91;;;20.60;56.68
72636;BME280;60679;48.888;15.544;2023-06-26T06:43:04;96246.94;;;20.71;56.79
72636;BME280;60679;48.888;15.544;2023-06-26T06:45:29;96241.34;;;20.81;56.37
72636;BME280;60679;48.888;15.544;2023-06-26T06:47:55;96236.25;;;20.98;56.08
72636;BME280;60679;48.888;15.544;2023-06-26T06:50:20;96230.66;;;21.08;56.10
72636;BME280;60679;48.888;15.544;2023-06-26T06:52:45;96227.53;;;21.20;55.62
72636;BME280;60679;48.888;15.544;2023-06-26T06:55:11;96234.78;;;21.35;55.73
72636;BME280;60679;48.888;15.544;2023-06-26T06:57:38;96237.69;;;21.43;55.67
72636;BME280;60679;48.888;15.544;2023-06-26T07:00:12;96240.63;;;21.52;55.63
72636;BME280;60679;48.888;15.544;2023-06-26T07:02:42;96234.94;;;21.67;55.35
72636;BME280;60679;48.888;15.544;2023-06-26T07:05:09;96235.94;;;21.76;55.02
72636;BME280;60679;48.888;15.544;2023-06-26T07:07:36;96233.56;;;21.88;54.80
72636;BME280;60679;48.888;15.544;2023-06-26T07:10:07;96241.41;;;22.00;54.13
72636;BME280;60679;48.888;15.544;2023-06-26T07:12:34;96238.56;;;22.05;54.26
72636;BME280;60679;48.888;15.544;2023-06-26T07:15:00;96240.38;;;22.14;54.28
72636;BME280;60679;48.888;15.544;2023-06-26T07:17:26;96241.41;;;22.18;53.59
72636;BME280;60679;48.888;15.544;2023-06-26T07:19:51;96237.16;;;22.26;53.60
72636;BME280;60679;48.888;15.544;2023-06-26T07:22:17;96236.81;;;22.32;53.60
72636;BME280;60679;48.888;15.544;2023-06-26T07:24:45;96234.38;;;22.44;53.27
72636;BME280;60679;48.888;15.544;2023-06-26T07:27:11;96233.56;;;22.63;53.03
72636;BME280;60679;48.888;15.544;2023-06-26T07:29:36;96234.94;;;22.79;52.53
72636;BME280;60679;48.888;15.544;2023-06-26T07:32:01;96234.25;;;22.87;52.30
72636;BME280;60679;48.888;15.544;2023-06-26T07:34:27;96229.28;;;22.89;52.19
72636;BME280;60679;48.888;15.544;2023-06-26T07:36:52;96226.34;;;22.99;52.33
72636;BME280;60679;48.888;15.544;2023-06-26T07:39:18;96232.25;;;23.06;51.80
72636;BME280;60679;48.888;15.544;2023-06-26T07:41:43;96226.75;;;23.06;51.76
72636;BME280;60679;48.888;15.544;2023-06-26T07:44:09;96230.31;;;23.20;51.91
72636;BME280;60679;48.888;15.544;2023-06-26T07:46:34;96233.31;;;23.37;51.49
72636;BME280;60679;48.888;15.544;2023-06-26T07:49:00;96234.88;;;23.57;51.45
72636;BME280;60679;48.888;15.544;2023-06-26T07:51:25;96233.75;;;23.72;51.35
72636;BME280;60679;48.888;15.544;2023-06-26T07:53:53;96239.88;;;23.69;51.19
72636;BME280;60679;48.888;15.544;2023-06-26T07:56:19;96237.13;;;23.69;50.64
72636;BME280;60679;48.888;15.544;2023-06-26T07:58:45;96233.53;;;23.82;50.33
72636;BME280;60679;48.888;15.544;2023-06-26T08:01:10;96236.47;;;23.99;50.61
72636;BME280;60679;48.888;15.544;2023-06-26T08:03:36;96231.47;;;24.01;50.17
72636;BME280;60679;48.888;15.544;2023-06-26T08:06:01;96230.72;;;24.09;49.97
72636;BME280;60679;48.888;15.544;2023-06-26T08:08:28;96230.91;;;24.26;49.75
72636;BME280;60679;48.888;15.544;2023-06-26T08:10:53;96225.22;;;24.45;49.77
72636;BME280;60679;48.888;15.544;2023-06-26T08:13:19;96230.31;;;24.29;49.51
72636;BME280;60679;48.888;15.544;2023-06-26T08:15:44;96227.75;;;24.33;49.68
72636;BME280;60679;48.888;15.544;2023-06-26T08:18:10;96228.59;;;24.42;49.39
72636;BME280;60679;48.888;15.544;2023-06-26T08:20:36;96216.78;;;24.63;49.47
72636;BME280;60679;48.888;15.544;2023-06-26T08:23:03;96221.63;;;24.80;48.90
72636;BME280;60679;48.888;15.544;2023-06-26T08:25:28;96227.38;;;24.92;48.78
72636;BME280;60679;48.888;15.544;2023-06-26T08:27:54;96229.56;;;25.04;48.53
72636;BME280;60679;48.888;15.544;2023-06-26T08:30:20;96212.63;;;25.27;48.30
72636;BME280;60679;48.888;15.544;2023-06-26T08:32:46;96218.53;;;25.43;48.15
72636;BME280;60679;48.888;15.544;2023-06-26T08:35:11;96222.38;;;25.64;48.12
72636;BME280;60679;48.888;15.544;2023-06-26T08:37:37;96223.72;;;25.75;47.57
72636;BME280;60679;48.888;15.544;2023-06-26T08:40:03;96224.19;;;25.69;47.70
72636;BME280;60679;48.888;15.544;2023-06-26T08:42:30;96219.47;;;25.69;47.31
72636;BME280;60679;48.888;15.544;2023-06-26T08:44:55;96214.56;;;25.66;47.60
72636;BME280;60679;48.888;15.544;2023-06-26T08:47:21;96218.91;;;25.98;47.09
72636;BME280;60679;48.888;15.544;2023-06-26T08:52:56;96210.00;;;26.53;46.70
72636;BME280;60679;48.888;15.544;2023-06-26T08:55:26;96208.03;;;26.62;46.38
72636;BME280;60679;48.888;15.544;2023-06-26T08:57:52;96200.84;;;26.78;46.31
72636;BME280;60679;48.888;15.544;2023-06-26T09:00:19;96200.53;;;26.97;46.03
72636;BME280;60679;48.888;15.544;2023-06-26T09:02:45;96203.19;;;27.31;45.52
72636;BME280;60679;48.888;15.544;2023-06-26T09:05:11;96198.78;;;27.76;44.74
72636;BME280;60679;48.888;15.544;2023-06-26T09:07:36;96202.25;;;28.44;44.08
72636;BME280;60679;48.888;15.544;2023-06-26T09:10:02;96199.97;;;28.99;43.10
72636;BME280;60679;48.888;15.544;2023-06-26T09:12:28;96198.91;;;28.92;42.97
72636;BME280;60679;48.888;15.544;2023-06-26T09:14:54;96194.19;;;29.37;42.33
72636;BME280;60679;48.888;15.544;2023-06-26T09:17:24;96191.84;;;30.36;41.01
72636;BME280;60679;48.888;15.544;2023-06-26T09:19:51;96188.78;;;31.99;39.17
72636;BME280;60679;48.888;15.544;2023-06-26T09:22:16;96200.16;;;33.33;37.88
72636;BME280;60679;48.888;15.544;2023-06-26T09:24:43;96195.25;;;34.47;36.33
72636;BME280;60679;48.888;15.544;2023-06-26T09:27:09;96192.47;;;33.72;38.07
72636;BME280;60679;48.888;15.544;2023-06-26T09:29:35;96200.41;;;32.51;39.16
72636;BME280;60679;48.888;15.544;2023-06-26T09:32:00;96193.44;;;34.92;35.13
72636;BME280;60679;48.888;15.544;2023-06-26T09:34:32;96193.25;;;40.88;27.97
72636;BME280;60679;48.888;15.544;2023-06-26T09:36:58;96184.50;;;42.89;26.11
72636;BME280;60679;48.888;15.544;2023-06-26T09:39:24;96191.03;;;44.01;25.14
72636;BME280;60679;48.888;15.544;2023-06-26T09:41:50;96185.19;;;44.56;24.70
72636;BME280;60679;48.888;15.544;2023-06-26T09:44:16;96183.63;;;45.54;24.14
72636;BME280;60679;48.888;15.544;2023-06-26T09:46:45;96186.69;;;46.61;23.20
72636;BME280;60679;48.888;15.544;2023-06-26T09:49:11;96174.63;;;46.44;22.72
72636;BME280;60679;48.888;15.544;2023-06-26T09:51:38;96171.47;;;46.64;22.99
72636;BME280;60679;48.888;15.544;2023-06-26T09:54:05;96166.13;;;47.22;22.04
72636;BME280;60679;48.888;15.544;2023-06-26T09:56:32;96162.75;;;44.58;24.37
72636;BME280;60679;48.888;15.544;2023-06-26T09:59:03;96168.38;;;37.03;32.65
72636;BME280;60679;48.888;15.544;2023-06-26T10:01:29;96168.50;;;41.26;26.66
72636;BME280;60679;48.888;15.544;2023-06-26T10:03:55;96169.34;;;45.54;22.76
72636;BME280;60679;48.888;15.544;2023-06-26T10:06:38;96167.88;;;41.11;27.58
72636;BME280;60679;48.888;15.544;2023-06-26T10:09:06;96154.00;;;47.18;21.28
72636;BME280;60679;48.888;15.544;2023-06-26T10:11:56;96152.75;;;49.14;20.16
72636;BME280;60679;48.888;15.544;2023-06-26T10:14:26;96144.19;;;46.50;21.95
72636;BME280;60679;48.888;15.544;2023-06-26T10:16:55;96145.44;;;49.23;19.37
72636;BME280;60679;48.888;15.544;2023-06-26T10:19:22;96141.59;;;46.30;22.33
72636;BME280;60679;48.888;15.544;2023-06-26T10:21:53;96131.22;;;42.74;25.30
72636;BME280;60679;48.888;15.544;2023-06-26T10:24:21;96136.31;;;37.67;30.35
72636;BME280;60679;48.888;15.544;2023-06-26T10:26:50;96127.63;;;35.19;32.80
72636;BME280;60679;48.888;15.544;2023-06-26T10:29:17;96134.69;;;37.52;29.46
72636;BME280;60679;48.888;15.544;2023-06-26T10:31:50;96138.75;;;39.37;27.04
72636;BME280;60679;48.888;15.544;2023-06-26T10:34:17;96125.03;;;36.45;30.52
72636;BME280;60679;48.888;15.544;2023-06-26T10:36:42;96129.16;;;34.79;31.90
72636;BME280;60679;48.888;15.544;2023-06-26T10:39:08;96121.88;;;34.15;32.13
72636;BME280;60679;48.888;15.544;2023-06-26T10:41:37;96124.13;;;33.80;32.69
72636;BME280;60679;48.888;15.544;2023-06-26T10:44:11;96118.19;;;36.43;28.81
72636;BME280;60679;48.888;15.544;2023-06-26T10:49:25;96114.94;;;34.36;31.43
72636;BME280;60679;48.888;15.544;2023-06-26T10:51:51;96120.50;;;35.32;30.19
72636;BME280;60679;48.888;15.544;2023-06-26T10:54:19;96118.94;;;46.36;19.86
72636;BME280;60679;48.888;15.544;2023-06-26T10:56:48;96124.88;;;50.88;17.59
72636;BME280;60679;48.888;15.544;2023-06-26T11:01:45;96109.81;;;39.04;27.70
72636;BME280;60679;48.888;15.544;2023-06-26T11:04:13;96117.19;;;36.93;29.60
72636;BME280;60679;48.888;15.544;2023-06-26T11:06:40;96108.91;;;35.33;30.53
72636;BME280;60679;48.888;15.544;2023-06-26T11:09:08;96112.63;;;43.96;21.59
72636;BME280;60679;48.888;15.544;2023-06-26T11:14:24;96108.22;;;52.09;16.74
72636;BME280;60679;48.888;15.544;2023-06-26T11:16:50;96103.63;;;52.72;16.48
72636;BME280;60679;48.888;15.544;2023-06-26T11:19:17;96108.88;;;53.20;15.92
72636;BME280;60679;48.888;15.544;2023-06-26T11:21:43;96107.44;;;52.84;16.27
72636;BME280;60679;48.888;15.544;2023-06-26T11:24:11;96099.91;;;52.92;15.64
72636;BME280;60679;48.888;15.544;2023-06-26T11:26:41;96095.84;;;53.55;15.37
72636;BME280;60679;48.888;15.544;2023-06-26T11:29:07;96100.84;;;54.66;14.59
72636;BME280;60679;48.888;15.544;2023-06-26T11:31:35;96096.09;;;55.38;14.45
72636;BME280;60679;48.888;15.544;2023-06-26T11:34:04;96089.75;;;55.29;14.77
72636;BME280;60679;48.888;15.544;2023-06-26T11:36:30;96084.75;;;55.24;14.21
72636;BME280;60679;48.888;15.544;2023-06-26T11:39:01;96073.38;;;52.68;15.39
72636;BME280;60679;48.888;15.544;2023-06-26T11:41:30;96074.44;;;54.47;14.39
72636;BME280;60679;48.888;15.544;2023-06-26T11:46:37;96073.75;;;53.52;14.97
72636;BME280;60679;48.888;15.544;2023-06-26T11:49:04;96067.16;;;53.83;14.68
72636;BME280;60679;48.888;15.544;2023-06-26T11:51:29;96065.53;;;55.70;13.98
72636;BME280;60679;48.888;15.544;2023-06-26T11:53:55;96080.09;;;54.73;13.92
72636;BME280;60679;48.888;15.544;2023-06-26T11:56:20;96063.09;;;53.64;14.16
72636;BME280;60679;48.888;15.544;2023-06-26T11:59:03;96063.88;;;55.08;13.43
72636;BME280;60679;48.888;15.544;2023-06-26T12:01:37;96066.88;;;55.81;13.16
72636;BME280;60679;48.888;15.544;2023-06-26T12:04:05;96063.66;;;55.95;12.52
72636;BME280;60679;48.888;15.544;2023-06-26T12:06:33;96053.13;;;55.98;12.68
72636;BME280;60679;48.888;15.544;2023-06-26T12:09:00;96057.06;;;56.17;12.34
72636;BME280;60679;48.888;15.544;2023-06-26T12:11:27;96050.81;;;56.76;12.13
72636;BME280;60679;48.888;15.544;2023-06-26T12:13:54;96055.44;;;57.37;11.80
72636;BME280;60679;48.888;15.544;2023-06-26T12:16:19;96041.91;;;51.01;15.81
72636;BME280;60679;48.888;15.544;2023-06-26T12:18:46;96034.16;;;52.81;13.97
72636;BME280;60679;48.888;15.544;2023-06-26T12:24:00;96032.53;;;48.17;17.34
72636;BME280;60679;48.888;15.544;2023-06-26T12:26:27;96024.06;;;41.65;22.03
72636;BME280;60679;48.888;15.544;2023-06-26T12:28:53;96019.00;;;38.08;24.22
72636;BME280;60679;48.888;15.544;2023-06-26T12:31:21;96014.34;;;42.09;20.09
72636;BME280;60679;48.888;15.544;2023-06-26T12:33:47;96020.19;;;40.72;21.61
72636;BME280;60679;48.888;15.544;2023-06-26T12:36:13;96022.59;;;47.32;16.68
72636;BME280;60679;48.888;15.544;2023-06-26T12:38:40;96018.28;;;43.30;19.91
72636;BME280;60679;48.888;15.544;2023-06-26T12:41:12;96013.47;;;40.93;21.72
72636;BME280;60679;48.888;15.544;2023-06-26T12:43:42;96016.88;;;41.07;21.13
72636;BME280;60679;48.888;15.544;2023-06-26T12:46:08;96005.97;;;39.19;22.51
72636;BME280;60679;48.888;15.544;2023-06-26T12:48:42;96005.75;;;37.77;23.67
72636;BME280;60679;48.888;15.544;2023-06-26T12:51:16;95999.72;;;36.83;23.99
72636;BME280;60679;48.888;15.544;2023-06-26T12:53:42;96007.13;;;36.19;25.06
72636;BME280;60679;48.888;15.544;2023-06-26T12:56:09;96004.94;;;35.91;24.99
72636;BME280;60679;48.888;15.544;2023-06-26T12:58:36;96001.28;;;36.81;24.13
72636;BME280;60679;48.888;15.544;2023-06-26T13:01:06;95991.34;;;39.35;21.53
72636;BME280;60679;48.888;15.544;2023-06-26T13:03:42;95995.09;;;39.14;22.03
72636;BME280;60679;48.888;15.544;2023-06-26T13:06:08;95998.84;;;49.26;14.51
72636;BME280;60679;48.888;15.544;2023-06-26T13:08:34;96005.75;;;52.54;13.30
72636;BME280;60679;48.888;15.544;2023-06-26T13:10:59;96000.03;;;48.92;16.41